Merritt, Canada
Current Conditions -  °F | °C
As of 12:00 PM on Friday 28 Nov 2014 (Local Time) from CWLY Reporting Station
Light Snow Light Snow  
Wind Chill:   Ceiling: 6500
Heat Index: 21°   Visibility: 9mi
Dew Point:   Wind: 22mph
Humidity: 58%   Direction: 10°N
Pressure: 29.74"   Gusts: 33mph
Location:  50.11°N, 120.79°W
Report Text: CWLY 282000Z AUTO 01019G29KT 9SM -SN SCT048 OVC065 M06/M13 A2974 RMK SLP081
Loading
Personal Weather Stations






























Interactive Weather Map New forecast layout! Learn more

10-Day Weather Forecast

Advertisements
Track Severe Weather on mobile